createdAt,value
2022-08-22T00:01:38.531Z,76.38
2022-08-22T00:03:00.231Z,75.20
2022-08-22T00:04:14.365Z,76.18
2022-08-22T00:06:40.641Z,76.47
2022-08-22T00:09:29.310Z,76.84
2022-08-22T00:12:01.446Z,76.49
2022-08-22T00:14:41.385Z,75.80
2022-08-22T00:17:27.119Z,76.05
2022-08-22T00:20:08.942Z,75.71
2022-08-22T00:22:40.495Z,75.64
2022-08-22T00:25:25.772Z,75.40
2022-08-22T00:28:07.978Z,75.30
2022-08-22T00:30:37.859Z,75.23
2022-08-22T00:33:13.433Z,75.34
2022-08-22T00:35:45.005Z,75.56
2022-08-22T00:38:18.275Z,76.76
2022-08-22T00:40:53.640Z,75.99
2022-08-22T00:43:29.092Z,76.08
2022-08-22T00:46:14.153Z,75.91
2022-08-22T00:48:54.638Z,75.95
2022-08-22T00:51:26.979Z,75.75
2022-08-22T00:54:04.405Z,75.73
2022-08-22T00:56:36.188Z,76.16
2022-08-22T00:59:23.783Z,75.90
2022-08-22T01:01:57.300Z,75.67
2022-08-22T01:04:31.684Z,75.48
2022-08-22T01:07:07.970Z,75.20
2022-08-22T01:09:43.084Z,75.81
2022-08-22T01:12:21.479Z,75.31
2022-08-22T01:14:53.336Z,74.94
2022-08-22T01:17:22.784Z,75.11
2022-08-22T01:19:52.691Z,75.16
2022-08-22T01:22:18.964Z,75.19
2022-08-22T01:25:08.235Z,75.13
2022-08-22T01:27:44.211Z,76.08
2022-08-22T01:30:40.243Z,76.33
2022-08-22T01:33:32.587Z,75.91
2022-08-22T01:36:10.827Z,75.27
2022-08-22T01:38:43.466Z,74.63
2022-08-22T01:41:17.076Z,75.60
2022-08-22T01:43:59.583Z,75.08
2022-08-22T01:46:45.988Z,76.24
2022-08-22T01:49:18.300Z,76.70
2022-08-22T01:52:03.260Z,76.42
2022-08-22T01:54:49.549Z,77.13
2022-08-22T01:57:16.815Z,77.17
2022-08-22T01:59:45.933Z,77.50
2022-08-22T02:02:18.271Z,76.29
2022-08-22T02:05:08.579Z,76.12
2022-08-22T02:07:41.761Z,76.51
2022-08-22T02:10:08.051Z,76.75
2022-08-22T02:12:49.405Z,75.50
2022-08-22T02:15:23.070Z,76.48
2022-08-22T02:18:04.577Z,75.78
2022-08-22T02:20:49.649Z,76.21
2022-08-22T02:23:25.027Z,76.35
2022-08-22T02:25:54.528Z,75.99
2022-08-22T02:28:39.184Z,75.71
2022-08-22T02:31:34.593Z,76.09
2022-08-22T02:34:03.241Z,75.86
2022-08-22T02:36:32.577Z,75.75
2022-08-22T02:39:07.981Z,75.83
2022-08-22T02:41:44.007Z,75.65
2022-08-22T02:44:17.137Z,75.60
2022-08-22T02:46:53.389Z,76.06
2022-08-22T02:49:19.928Z,75.49
2022-08-22T02:51:51.309Z,75.97
2022-08-22T02:54:30.267Z,76.31
2022-08-22T02:57:06.475Z,76.29
2022-08-22T02:59:58.682Z,75.55
2022-08-22T03:02:25.239Z,76.04
2022-08-22T03:04:54.311Z,76.17
2022-08-22T03:07:20.587Z,75.17
2022-08-22T03:09:46.863Z,76.32
2022-08-22T03:12:21.507Z,76.40
2022-08-22T03:14:55.359Z,75.34
2022-08-22T03:17:33.374Z,75.44
2022-08-22T03:20:10.241Z,75.53
2022-08-22T03:22:53.754Z,76.01
2022-08-22T03:25:26.541Z,76.18
2022-08-22T03:28:02.018Z,76.08
2022-08-22T03:30:33.137Z,75.27
2022-08-22T03:33:19.752Z,74.66
2022-08-22T03:35:46.047Z,76.12
2022-08-22T03:38:40.459Z,75.65
2022-08-22T03:41:12.599Z,76.24
2022-08-22T03:43:38.891Z,74.78
2022-08-22T03:46:11.223Z,74.96
2022-08-22T03:48:40.577Z,75.38
2022-08-22T03:51:26.403Z,75.61
2022-08-22T03:54:11.576Z,74.88
2022-08-22T03:56:47.263Z,75.78
2022-08-22T03:59:29.085Z,74.96
2022-08-22T04:02:31.521Z,76.06
2022-08-22T04:05:15.134Z,75.58
2022-08-22T04:08:01.774Z,75.23
2022-08-22T04:10:38.442Z,75.09
2022-08-22T04:13:24.842Z,74.78
2022-08-22T04:16:08.106Z,75.51
2022-08-22T04:18:59.486Z,74.94
2022-08-22T04:21:44.362Z,74.76
2022-08-22T04:24:22.255Z,75.02
2022-08-22T04:26:56.201Z,75.93
2022-08-22T04:29:25.510Z,75.21
2022-08-22T04:32:05.855Z,74.39
2022-08-22T04:34:38.061Z,75.34
2022-08-22T04:37:09.833Z,74.86
2022-08-22T04:39:46.473Z,76.18
2022-08-22T04:42:36.716Z,75.63
2022-08-22T04:45:13.160Z,75.26
2022-08-22T04:48:00.798Z,76.46
2022-08-22T04:50:43.798Z,76.01
2022-08-22T04:53:28.493Z,75.61
2022-08-22T04:56:07.229Z,76.14
2022-08-22T04:59:03.689Z,76.14
2022-08-22T05:01:38.958Z,76.57
2022-08-22T05:04:10.465Z,76.32
2022-08-22T05:06:40.019Z,76.20
2022-08-22T05:09:14.157Z,77.51
2022-08-22T05:11:42.887Z,77.29
2022-08-22T05:14:15.949Z,78.06
2022-08-22T05:16:43.918Z,78.56
2022-08-22T05:19:28.573Z,77.53
2022-08-22T05:21:58.310Z,78.91
2022-08-22T05:24:31.770Z,79.10
2022-08-22T05:27:01.542Z,79.69
2022-08-22T05:29:29.759Z,80.03
2022-08-22T05:32:04.492Z,80.07
2022-08-22T05:34:37.746Z,79.43
2022-08-22T05:37:25.634Z,80.21
2022-08-22T05:39:57.510Z,80.07
2022-08-22T05:42:33.121Z,80.70
2022-08-22T05:45:04.649Z,81.06
2022-08-22T05:47:36.512Z,80.91
2022-08-22T05:50:07.238Z,80.64
2022-08-22T05:52:36.665Z,80.25
2022-08-22T05:55:13.961Z,80.65
2022-08-22T05:57:42.404Z,80.77
2022-08-22T06:00:16.587Z,80.75
2022-08-22T06:02:45.418Z,80.42
2022-08-22T06:05:12.341Z,80.05
2022-08-22T06:07:47.727Z,80.66
2022-08-22T06:10:31.020Z,80.12
2022-08-22T06:13:11.567Z,80.89
2022-08-22T06:15:56.773Z,80.53
2022-08-22T06:18:24.885Z,79.92
2022-08-22T06:20:56.768Z,79.78
2022-08-22T06:23:31.077Z,79.67
2022-08-22T06:25:59.070Z,78.96
2022-08-22T06:28:27.605Z,79.31
2022-08-22T06:30:55.682Z,79.31
2022-08-22T06:33:29.057Z,79.12
2022-08-22T06:36:20.475Z,78.96
2022-08-22T06:38:56.216Z,79.40
2022-08-22T06:41:25.513Z,78.98
2022-08-22T06:43:52.715Z,80.76
2022-08-22T06:46:20.307Z,80.10
2022-08-22T06:48:47.820Z,79.94
2022-08-22T06:51:16.451Z,80.30
2022-08-22T06:53:47.953Z,80.72
2022-08-22T06:56:20.172Z,79.92
2022-08-22T06:58:48.674Z,79.46
2022-08-22T07:01:18.105Z,76.74
2022-08-22T07:03:51.238Z,76.31
2022-08-22T07:06:33.361Z,77.37
2022-08-22T07:09:00.025Z,74.27
2022-08-22T07:11:37.963Z,74.41
2022-08-22T07:14:06.372Z,75.57
2022-08-22T07:16:35.554Z,76.95
2022-08-22T07:19:03.884Z,75.28
2022-08-22T07:21:41.263Z,76.28
2022-08-22T07:24:08.926Z,76.32
2022-08-22T07:26:54.372Z,75.78
2022-08-22T07:29:28.227Z,75.18
2022-08-22T07:32:04.066Z,75.98
2022-08-22T07:34:39.367Z,76.55
2022-08-22T07:37:11.940Z,76.89
2022-08-22T07:39:42.892Z,75.91
2022-08-22T07:42:10.364Z,74.74
2022-08-22T07:44:55.399Z,74.91
2022-08-22T07:47:26.689Z,74.09
2022-08-22T07:49:55.311Z,74.17
2022-08-22T07:52:22.191Z,74.76
2022-08-22T07:54:53.416Z,74.14
2022-08-22T07:57:31.493Z,73.10
2022-08-22T07:59:59.850Z,74.43
2022-08-22T08:02:26.467Z,73.56
2022-08-22T08:04:53.869Z,72.98
2022-08-22T08:07:21.876Z,74.40
2022-08-22T08:09:53.406Z,73.76
2022-08-22T08:12:22.868Z,73.34
2022-08-22T08:14:51.772Z,74.06
2022-08-22T08:17:26.877Z,72.41
2022-08-22T08:19:56.398Z,72.05
2022-08-22T08:22:24.486Z,70.99
2022-08-22T08:24:53.093Z,71.78
2022-08-22T08:27:50.187Z,70.59
2022-08-22T08:30:21.992Z,70.30
2022-08-22T08:32:51.134Z,70.50
2022-08-22T08:35:25.434Z,69.91
2022-08-22T08:38:12.145Z,70.15
2022-08-22T08:40:50.637Z,69.24
2022-08-22T08:43:34.915Z,67.87
2022-08-22T08:46:01.229Z,67.97
2022-08-22T08:48:47.173Z,67.49
2022-08-22T08:51:34.511Z,66.36
2022-08-22T08:54:27.340Z,64.93
2022-08-22T08:57:03.065Z,66.33
2022-08-22T08:59:44.066Z,66.43
2022-08-22T09:02:23.515Z,65.35
2022-08-22T09:04:50.123Z,66.01
2022-08-22T09:07:27.516Z,64.79
2022-08-22T09:10:16.619Z,64.77
2022-08-22T09:12:55.995Z,64.61
2022-08-22T09:15:41.789Z,63.67
2022-08-22T09:18:08.544Z,64.13
2022-08-22T09:20:46.313Z,64.66
2022-08-22T09:23:31.680Z,66.47
2022-08-22T09:26:10.245Z,64.76
2022-08-22T09:28:41.659Z,64.07
2022-08-22T09:31:33.056Z,64.96
2022-08-22T09:34:13.409Z,65.97
2022-08-22T09:36:50.529Z,65.39
2022-08-22T09:39:23.254Z,64.82
2022-08-22T09:42:10.380Z,65.37
2022-08-22T09:44:41.295Z,65.11
2022-08-22T09:47:10.182Z,66.13
2022-08-22T09:49:42.224Z,65.97
2022-08-22T09:52:33.742Z,63.49
2022-08-22T09:55:11.765Z,62.89
2022-08-22T09:57:50.459Z,63.07
2022-08-22T10:00:33.098Z,64.27
2022-08-22T10:03:19.435Z,63.69
2022-08-22T10:05:54.926Z,61.98
2022-08-22T10:08:26.526Z,63.37
2022-08-22T10:11:13.219Z,63.67
2022-08-22T10:14:01.594Z,62.86
2022-08-22T10:16:43.522Z,64.50
2022-08-22T10:19:30.087Z,63.05
2022-08-22T10:22:05.462Z,62.40
2022-08-22T10:24:44.104Z,61.97
2022-08-22T10:27:16.793Z,59.82
2022-08-22T10:29:52.204Z,59.71
2022-08-22T10:32:28.199Z,60.80
2022-08-22T10:34:57.630Z,61.12
2022-08-22T10:37:39.487Z,59.88
2022-08-22T10:40:06.194Z,60.53
2022-08-22T10:42:42.334Z,59.84
2022-08-22T10:45:11.002Z,62.51
2022-08-22T10:47:40.850Z,61.68
2022-08-22T10:50:18.291Z,63.17
2022-08-22T10:52:49.101Z,59.67
2022-08-22T10:55:19.172Z,59.81
2022-08-22T10:58:05.020Z,59.40
2022-08-22T11:00:50.498Z,59.21
2022-08-22T11:03:24.928Z,59.15
2022-08-22T11:05:53.134Z,59.17
2022-08-22T11:08:39.487Z,58.66
2022-08-22T11:11:32.764Z,58.76
2022-08-22T11:14:02.926Z,60.47
2022-08-22T11:16:36.494Z,61.86
2022-08-22T11:19:22.753Z,62.08
2022-08-22T11:22:03.998Z,62.85
2022-08-22T11:24:35.427Z,62.71
2022-08-22T11:27:37.989Z,61.41
2022-08-22T11:30:06.341Z,62.31
2022-08-22T11:32:32.625Z,58.91
2022-08-22T11:35:04.380Z,58.91
2022-08-22T11:37:54.910Z,60.45
2022-08-22T11:40:27.945Z,58.92
2022-08-22T11:42:54.440Z,58.99
2022-08-22T11:45:25.000Z,58.52
2022-08-22T11:47:56.808Z,57.70
2022-08-22T11:50:42.450Z,58.55
2022-08-22T11:53:37.498Z,59.27
2022-08-22T11:56:14.847Z,60.76
2022-08-22T11:58:45.657Z,59.58
2022-08-22T12:01:38.364Z,58.90
2022-08-22T12:04:16.790Z,58.77
2022-08-22T12:06:56.657Z,59.78
2022-08-22T12:09:25.941Z,61.24
2022-08-22T12:11:58.439Z,61.98
2022-08-22T12:14:32.379Z,59.91
2022-08-22T12:17:05.834Z,57.87
2022-08-22T12:19:32.999Z,58.44
2022-08-22T12:22:14.687Z,59.61
2022-08-22T12:24:44.180Z,60.92
2022-08-22T12:27:13.839Z,60.93
2022-08-22T12:29:54.770Z,59.86
2022-08-22T12:32:48.968Z,60.51
2022-08-22T12:35:27.150Z,60.98
2022-08-22T12:38:02.089Z,58.06
2022-08-22T12:40:48.055Z,57.75
2022-08-22T12:43:18.872Z,58.62
2022-08-22T12:45:51.074Z,56.78
2022-08-22T12:48:52.096Z,57.27
2022-08-22T12:51:24.563Z,56.86
2022-08-22T12:54:06.149Z,57.35
2022-08-22T12:56:34.815Z,57.20
2022-08-22T12:59:20.256Z,57.79
2022-08-22T13:01:48.213Z,56.47
2022-08-22T13:04:29.681Z,57.31
2022-08-22T13:07:17.965Z,56.79
2022-08-22T13:09:54.499Z,55.87
2022-08-22T13:12:27.690Z,56.90
2022-08-22T13:14:56.697Z,55.34
2022-08-22T13:17:25.307Z,57.96
2022-08-22T13:20:04.739Z,57.93
2022-08-22T13:22:32.896Z,57.83
2022-08-22T13:25:05.361Z,59.01
2022-08-22T13:27:41.059Z,59.08
2022-08-22T13:30:23.967Z,56.51
2022-08-22T13:32:52.967Z,58.27
2022-08-22T13:35:24.634Z,57.19
2022-08-22T13:37:55.424Z,56.82
2022-08-22T13:40:28.133Z,56.33
2022-08-22T13:43:15.629Z,55.78
2022-08-22T13:45:50.334Z,55.88
2022-08-22T13:48:16.733Z,56.48
2022-08-22T13:51:01.454Z,59.34
2022-08-22T13:53:28.413Z,57.43
2022-08-22T13:56:15.470Z,58.58
2022-08-22T13:58:47.650Z,57.73
2022-08-22T14:01:32.832Z,60.08
2022-08-22T14:04:28.985Z,61.10
2022-08-22T14:07:04.462Z,59.76
2022-08-22T14:09:40.215Z,58.19
2022-08-22T14:12:11.997Z,56.83
2022-08-22T14:14:40.367Z,57.12
2022-08-22T14:17:07.874Z,57.91
2022-08-22T14:19:48.999Z,57.31
2022-08-22T14:22:32.020Z,57.35
2022-08-22T14:25:02.622Z,57.02
2022-08-22T14:27:38.462Z,57.94
2022-08-22T14:30:06.610Z,58.15
2022-08-22T14:32:45.852Z,56.94
2022-08-22T14:35:21.510Z,55.66
2022-08-22T14:37:54.652Z,56.59
2022-08-22T14:40:23.135Z,58.17
2022-08-22T14:42:52.963Z,58.55
2022-08-22T14:45:19.333Z,59.60
2022-08-22T14:48:30.555Z,57.52
2022-08-22T14:50:49.406Z,57.21
2022-08-22T14:53:19.277Z,57.57
2022-08-22T14:56:04.194Z,57.64
2022-08-22T14:58:36.202Z,57.49
2022-08-22T15:01:13.939Z,58.57
2022-08-22T15:03:42.495Z,57.21
2022-08-22T15:06:13.560Z,57.74
2022-08-22T15:08:47.905Z,56.82
2022-08-22T15:11:19.462Z,58.95
2022-08-22T15:13:51.705Z,60.54
2022-08-22T15:16:21.742Z,60.71
2022-08-22T15:18:51.464Z,58.50
2022-08-22T15:21:24.437Z,58.16
2022-08-22T15:23:53.496Z,57.46
2022-08-22T15:26:27.998Z,57.33
2022-08-22T15:29:07.233Z,59.29
2022-08-22T15:31:33.900Z,58.36
2022-08-22T15:34:11.266Z,61.23
2022-08-22T15:36:57.563Z,58.37
2022-08-22T15:39:29.401Z,63.25
2022-08-22T15:41:56.460Z,61.10
2022-08-22T15:44:32.283Z,61.56
2022-08-22T15:46:59.458Z,63.54
2022-08-22T15:49:29.077Z,60.72
2022-08-22T15:52:01.731Z,62.02
2022-08-22T15:54:31.360Z,63.47
2022-08-22T15:57:06.833Z,62.28
2022-08-22T15:59:54.166Z,64.72
2022-08-22T16:02:24.071Z,64.55
2022-08-22T16:04:54.942Z,63.81
2022-08-22T16:07:26.107Z,64.32
2022-08-22T16:09:54.149Z,63.44
2022-08-22T16:12:26.361Z,63.46
2022-08-22T16:14:53.307Z,63.53
2022-08-22T16:17:25.686Z,63.46
2022-08-22T16:20:19.791Z,63.96
2022-08-22T16:22:58.632Z,64.72
2022-08-22T16:25:43.743Z,64.53
2022-08-22T16:28:36.180Z,64.28
2022-08-22T16:31:27.459Z,64.40
2022-08-22T16:33:56.228Z,64.52
2022-08-22T16:36:38.822Z,64.63
2022-08-22T16:39:13.601Z,65.71
2022-08-22T16:41:42.546Z,64.72
2022-08-22T16:44:13.562Z,64.98
2022-08-22T16:46:42.926Z,65.56
2022-08-22T16:49:10.498Z,65.15
2022-08-22T16:51:56.810Z,64.61
2022-08-22T16:54:41.838Z,66.24
2022-08-22T16:57:27.116Z,65.24
2022-08-22T17:00:01.293Z,66.40
2022-08-22T17:02:42.869Z,65.77
2022-08-22T17:05:15.453Z,67.68
2022-08-22T17:07:53.435Z,69.21
2022-08-22T17:10:43.228Z,67.75
2022-08-22T17:13:13.285Z,67.66
2022-08-22T17:15:52.459Z,67.40
2022-08-22T17:18:25.079Z,67.29
2022-08-22T17:21:11.495Z,66.41
2022-08-22T17:23:41.026Z,67.03
2022-08-22T17:26:17.580Z,67.78
2022-08-22T17:28:48.111Z,69.91
2022-08-22T17:31:27.236Z,69.70
2022-08-22T17:33:59.807Z,69.13
2022-08-22T17:36:49.645Z,68.34
2022-08-22T17:39:15.949Z,68.71
2022-08-22T17:42:00.428Z,68.42
2022-08-22T17:44:27.246Z,68.75
2022-08-22T17:46:54.146Z,68.48
2022-08-22T17:49:38.703Z,69.41
2022-08-22T17:52:08.211Z,69.51
2022-08-22T17:54:34.527Z,69.86
2022-08-22T17:57:19.886Z,70.58
2022-08-22T18:00:11.229Z,70.11
2022-08-22T18:02:40.710Z,69.58
2022-08-22T18:05:42.554Z,69.10
2022-08-22T18:08:37.314Z,69.88
2022-08-22T18:11:04.566Z,67.51
2022-08-22T18:13:36.218Z,67.76
2022-08-22T18:16:11.375Z,68.39
2022-08-22T18:18:40.297Z,68.52
2022-08-22T18:21:08.649Z,67.52
2022-08-22T18:23:46.087Z,68.31
2022-08-22T18:26:24.044Z,68.92
2022-08-22T18:28:57.170Z,69.09
2022-08-22T18:31:23.550Z,69.55
2022-08-22T18:33:52.238Z,69.44
2022-08-22T18:36:22.620Z,68.87
2022-08-22T18:38:55.457Z,68.89
2022-08-22T18:41:27.311Z,68.75
2022-08-22T18:43:54.454Z,68.91
2022-08-22T18:46:32.797Z,69.49
2022-08-22T18:49:15.107Z,69.85
2022-08-22T18:51:43.022Z,70.33
2022-08-22T18:54:11.085Z,70.31
2022-08-22T18:57:09.555Z,70.31
2022-08-22T18:59:35.829Z,70.17
2022-08-22T19:02:17.406Z,70.08
2022-08-22T19:04:55.934Z,70.07
2022-08-22T19:07:32.742Z,70.28
2022-08-22T19:10:17.728Z,70.56
2022-08-22T19:12:56.870Z,70.95
2022-08-22T19:15:38.607Z,70.20
2022-08-22T19:18:04.956Z,69.68
2022-08-22T19:20:52.138Z,70.61
2022-08-22T19:23:45.990Z,70.84
2022-08-22T19:26:29.639Z,72.30
2022-08-22T19:29:08.754Z,72.28
2022-08-22T19:31:39.856Z,71.85
2022-08-22T19:34:15.190Z,71.86
2022-08-22T19:36:42.173Z,72.42
2022-08-22T19:39:09.763Z,72.32
2022-08-22T19:41:49.214Z,72.24
2022-08-22T19:44:22.005Z,71.43
2022-08-22T19:47:00.581Z,71.72
2022-08-22T19:49:28.735Z,72.07
2022-08-22T19:52:12.026Z,72.75
2022-08-22T19:55:02.180Z,72.35
2022-08-22T19:57:41.716Z,72.22
2022-08-22T20:00:08.311Z,72.40
2022-08-22T20:02:53.298Z,72.81
2022-08-22T20:05:25.493Z,73.00
2022-08-22T20:07:52.390Z,72.98
2022-08-22T20:10:25.174Z,72.61
2022-08-22T20:12:57.475Z,73.22
2022-08-22T20:15:25.815Z,72.87
2022-08-22T20:20:55.691Z,74.26
2022-08-22T20:23:28.619Z,74.84
2022-08-22T20:25:55.961Z,74.17
2022-08-22T20:28:29.555Z,73.91
2022-08-22T20:31:00.529Z,74.89
2022-08-22T20:33:31.317Z,74.92
2022-08-22T20:35:59.545Z,75.33
2022-08-22T20:38:38.286Z,76.43
2022-08-22T20:41:24.149Z,76.21
2022-08-22T20:43:53.136Z,76.14
2022-08-22T20:46:38.024Z,77.21
2022-08-22T20:49:16.290Z,77.59
2022-08-22T20:51:50.466Z,77.78
2022-08-22T20:54:18.520Z,77.79
2022-08-22T20:56:51.640Z,78.46
2022-08-22T20:59:30.752Z,77.74
2022-08-22T21:02:02.509Z,77.83
2022-08-22T21:04:34.250Z,78.58
2022-08-22T21:07:01.451Z,78.09
2022-08-22T21:09:47.376Z,78.71
2022-08-22T21:12:13.884Z,78.23
2022-08-22T21:14:45.965Z,78.03
2022-08-22T21:17:23.906Z,77.67
2022-08-22T21:19:50.604Z,77.07
2022-08-22T21:22:24.535Z,77.17
2022-08-22T21:24:54.557Z,76.89
2022-08-22T21:27:26.147Z,76.83
2022-08-22T21:29:52.731Z,77.30
2022-08-22T21:32:37.533Z,77.38
2022-08-22T21:35:04.951Z,77.61
2022-08-22T21:37:39.816Z,77.84
2022-08-22T21:40:15.157Z,78.30
2022-08-22T21:42:43.597Z,77.38
2022-08-22T21:45:12.763Z,77.07
2022-08-22T21:47:40.530Z,78.36
2022-08-22T21:50:12.605Z,77.15
2022-08-22T21:52:41.275Z,78.47
2022-08-22T21:55:23.321Z,77.58
2022-08-22T21:58:04.774Z,78.34
2022-08-22T22:00:40.192Z,78.33
2022-08-22T22:03:15.868Z,78.21
2022-08-22T22:05:42.338Z,78.12
2022-08-22T22:08:11.171Z,77.21
2022-08-22T22:10:38.704Z,77.76
2022-08-22T22:13:05.088Z,77.21
2022-08-22T22:15:34.438Z,76.74
2022-08-22T22:18:00.993Z,77.52
2022-08-22T22:20:28.076Z,78.21
2022-08-22T22:22:54.539Z,77.58
2022-08-22T22:25:40.188Z,78.54
2022-08-22T22:28:13.518Z,78.24
2022-08-22T22:30:40.337Z,77.85
2022-08-22T22:33:06.812Z,77.98
2022-08-22T22:35:33.252Z,78.31
2022-08-22T22:37:59.722Z,78.26
2022-08-22T22:40:26.209Z,78.65
2022-08-22T22:42:52.560Z,79.76
2022-08-22T22:45:18.901Z,79.15
2022-08-22T22:47:45.289Z,79.99
2022-08-22T22:50:11.694Z,78.69
2022-08-22T22:52:38.501Z,78.80
2022-08-22T22:55:07.749Z,78.72
2022-08-22T22:57:42.481Z,80.23
2022-08-22T23:00:10.740Z,79.50
2022-08-22T23:02:37.077Z,79.91
2022-08-22T23:05:03.671Z,80.21
2022-08-22T23:07:29.984Z,80.02
2022-08-22T23:10:01.613Z,79.64
2022-08-22T23:12:28.644Z,79.65
2022-08-22T23:14:55.077Z,78.91
2022-08-22T23:17:21.437Z,79.06
2022-08-22T23:19:47.900Z,79.13
2022-08-22T23:22:14.362Z,79.74
2022-08-22T23:24:40.740Z,79.74
2022-08-22T23:27:07.957Z,79.21
2022-08-22T23:29:34.430Z,79.33
2022-08-22T23:32:02.125Z,78.38
2022-08-22T23:34:29.936Z,78.31
2022-08-22T23:36:58.149Z,77.87
2022-08-22T23:39:25.858Z,78.79
2022-08-22T23:41:52.240Z,78.63
2022-08-22T23:44:20.117Z,78.80
2022-08-22T23:46:46.485Z,77.85
2022-08-22T23:49:13.205Z,77.97
2022-08-22T23:51:40.472Z,79.06
2022-08-22T23:54:06.929Z,78.36
2022-08-22T23:56:35.343Z,78.25
2022-08-22T23:59:03.867Z,78.91
